Time;durP1;ratioP1;P1;durP2;ratioP2;P2;SDS_P1;SDS_P2;PMS_P1;PMS_P2;Temp;Humidity;BMP_temperature;BMP_pressure;BME280_temperature;BME280_humidity;BME280_pressure;Samples;Min_cycle;Max_cycle;Signal;HPM_P1;HPM_P2
2023/06/24 00:00:26;;;;;;;5.37;3.30;;;17.80;99.90;;;;;;4995019;28;20190;-85
2023/06/24 00:02:53;;;;;;;5.40;3.67;;;17.80;99.90;;;;;;5016279;28;20178;-85
2023/06/24 00:05:19;;;;;;;3.60;3.10;;;17.70;99.90;;;;;;5014384;28;20172;-87
2023/06/24 00:07:45;;;;;;;4.53;3.17;;;17.70;99.90;;;;;;5012137;28;20429;-85
2023/06/24 00:10:14;;;;;;;6.90;3.50;;;17.80;99.90;;;;;;5016393;28;20206;-86
2023/06/24 00:12:41;;;;;;;5.50;3.43;;;17.80;99.90;;;;;;5018104;28;20562;-88
2023/06/24 00:15:09;;;;;;;5.33;3.50;;;18.20;99.90;;;;;;5025251;28;20805;-88
2023/06/24 00:17:35;;;;;;;4.30;3.33;;;18.30;99.90;;;;;;5020312;28;20749;-86
2023/06/24 00:20:00;;;;;;;5.43;3.23;;;18.10;99.90;;;;;;5013760;28;20445;-89
2023/06/24 00:22:26;;;;;;;7.53;3.30;;;18.10;99.90;;;;;;5011535;28;20452;-86
2023/06/24 00:24:51;;;;;;;5.90;3.07;;;18.00;99.90;;;;;;4999901;28;20171;-88
2023/06/24 00:27:17;;;;;;;6.27;3.77;;;18.00;99.90;;;;;;4996343;28;20190;-87
2023/06/24 00:29:42;;;;;;;4.80;3.27;;;18.00;99.90;;;;;;5018964;28;20229;-86
2023/06/24 00:32:08;;;;;;;6.00;3.83;;;17.90;99.90;;;;;;5001475;28;20542;-84
2023/06/24 00:34:34;;;;;;;3.77;3.27;;;18.30;99.90;;;;;;5003614;28;20217;-84
2023/06/24 00:36:59;;;;;;;6.57;4.53;;;18.70;99.90;;;;;;5000711;28;20214;-84
2023/06/24 00:39:25;;;;;;;6.10;3.83;;;19.10;99.90;;;;;;4986466;28;20500;-85
2023/06/24 00:41:51;;;;;;;5.80;3.60;;;18.40;99.90;;;;;;5016579;28;20225;-85
2023/06/24 00:44:16;;;;;;;8.70;5.10;;;18.20;99.90;;;;;;5004525;28;20281;-85
2023/06/24 00:46:42;;;;;;;6.27;4.00;;;18.00;99.90;;;;;;5003735;28;20186;-85
2023/06/24 00:49:08;;;;;;;4.00;3.03;;;17.60;99.90;;;;;;5000980;28;20194;-85
2023/06/24 00:51:35;;;;;;;4.03;3.13;;;17.60;99.90;;;;;;5005020;28;20923;-87
2023/06/24 00:54:01;;;;;;;5.73;3.40;;;17.50;99.90;;;;;;5015971;28;20289;-85
2023/06/24 00:56:33;;;;;;;10.10;3.50;;;17.50;99.90;;;;;;5005773;28;20464;-84
2023/06/24 00:59:01;;;;;;;4.10;3.30;;;17.30;99.90;;;;;;5003925;28;20178;-85
2023/06/24 01:01:31;;;;;;;7.40;4.10;;;17.20;99.90;;;;;;5003360;28;20906;-84
2023/06/24 01:03:57;;;;;;;7.33;4.53;;;17.40;99.90;;;;;;4991079;28;20433;-83
2023/06/24 01:06:23;;;;;;;6.47;4.00;;;18.10;99.90;;;;;;5001312;28;20440;-85
2023/06/24 01:08:50;;;;;;;5.03;3.70;;;18.40;99.90;;;;;;5007802;28;20210;-83
2023/06/24 01:11:16;;;;;;;7.27;4.20;;;18.30;99.90;;;;;;4992133;28;20294;-82
2023/06/24 01:13:43;;;;;;;4.70;3.20;;;18.00;99.90;;;;;;4980680;28;21266;-84
2023/06/24 01:16:14;;;;;;;5.43;4.17;;;18.10;99.90;;;;;;4994954;28;20464;-84
2023/06/24 01:18:46;;;;;;;5.17;3.50;;;17.90;99.90;;;;;;4998930;28;20491;-83
2023/06/24 01:21:28;;;;;;;4.47;3.50;;;17.90;99.90;;;;;;4999731;28;20454;-83
2023/06/24 01:24:07;;;;;;;6.10;4.10;;;18.20;99.90;;;;;;5005734;28;20508;-88
2023/06/24 01:26:59;;;;;;;6.97;3.80;;;18.30;99.90;;;;;;5000413;28;20425;-86
2023/06/24 01:29:51;;;;;;;8.90;5.70;;;18.50;99.90;;;;;;4992512;28;20460;-84
2023/06/24 01:32:37;;;;;;;9.47;6.30;;;18.70;99.90;;;;;;4999822;28;20433;-86
2023/06/24 01:35:12;;;;;;;11.80;5.40;;;18.60;99.90;;;;;;4999963;28;20421;-85
2023/06/24 01:37:51;;;;;;;7.23;4.93;;;18.20;99.90;;;;;;4998980;28;20413;-85
2023/06/24 01:40:26;;;;;;;7.03;4.60;;;17.80;99.90;;;;;;5005722;28;20427;-87
2023/06/24 01:42:53;;;;;;;6.83;4.83;;;17.50;99.90;;;;;;5001880;28;20449;-84
2023/06/24 01:45:22;;;;;;;6.87;4.50;;;17.30;99.90;;;;;;4997495;28;20507;-85
2023/06/24 01:47:54;;;;;;;6.10;4.10;;;17.10;99.90;;;;;;4997729;28;20448;-86
2023/06/24 01:50:23;;;;;;;6.43;4.10;;;17.10;99.90;;;;;;5007462;28;20512;-87
2023/06/24 01:52:52;;;;;;;7.00;4.10;;;17.40;99.90;;;;;;5007046;28;20447;-86
2023/06/24 01:55:20;;;;;;;6.40;3.80;;;17.40;99.90;;;;;;5009682;28;20464;-87
2023/06/24 01:57:48;;;;;;;5.93;4.40;;;17.70;99.90;;;;;;5005117;28;20869;-86
2023/06/24 02:00:15;;;;;;;8.83;5.40;;;18.00;99.90;;;;;;5009551;28;20464;-88
2023/06/24 02:02:41;;;;;;;7.70;3.97;;;17.90;99.90;;;;;;5001367;28;20430;-87
2023/06/24 02:05:09;;;;;;;7.73;4.60;;;17.60;99.90;;;;;;5007029;28;20544;-87
2023/06/24 02:07:35;;;;;;;6.80;4.70;;;17.80;99.90;;;;;;5003845;28;20658;-86
2023/06/24 02:10:01;;;;;;;7.60;4.27;;;18.30;99.90;;;;;;5007320;28;20465;-85
2023/06/24 02:12:28;;;;;;;6.80;4.80;;;18.50;99.90;;;;;;5000369;28;20434;-89
2023/06/24 02:14:59;;;;;;;6.43;4.40;;;18.90;99.90;;;;;;5002156;28;20445;-88
2023/06/24 02:17:29;;;;;;;6.13;4.33;;;19.10;99.90;;;;;;5019305;28;20487;-89
2023/06/24 02:19:56;;;;;;;8.37;5.27;;;18.90;99.90;;;;;;5002693;28;20503;-88
2023/06/24 02:22:22;;;;;;;5.87;4.00;;;18.40;99.90;;;;;;5004326;28;20902;-88
2023/06/24 02:24:50;;;;;;;7.87;4.33;;;18.30;99.90;;;;;;5023672;28;20813;-88
2023/06/24 02:27:17;;;;;;;8.17;4.80;;;18.00;99.90;;;;;;5026092;28;20432;-87
2023/06/24 02:29:43;;;;;;;9.83;5.67;;;17.80;99.90;;;;;;5001004;28;20452;-90
2023/06/24 02:32:09;;;;;;;8.60;4.63;;;;;;;;;;5001730;28;20457;-90
2023/06/24 02:34:35;;;;;;;11.07;5.43;;;17.90;99.90;;;;;;5011594;28;20556;-88
2023/06/24 02:37:01;;;;;;;6.90;5.17;;;17.30;99.90;;;;;;4997555;28;21183;-88
2023/06/24 02:39:27;;;;;;;7.40;4.60;;;17.00;99.90;;;;;;4999136;28;20218;-89
2023/06/24 02:41:53;;;;;;;5.83;4.60;;;16.80;99.90;;;;;;5014129;28;20206;-89
2023/06/24 02:44:18;;;;;;;7.40;4.80;;;16.60;99.90;;;;;;5011826;28;20795;-88
2023/06/24 02:46:46;;;;;;;7.07;4.93;;;16.20;99.90;;;;;;5013522;28;20265;-87
2023/06/24 02:49:15;;;;;;;8.37;5.63;;;15.90;99.90;;;;;;5019241;28;20301;-86
2023/06/24 02:51:42;;;;;;;9.03;4.97;;;15.90;99.90;;;;;;5017327;28;20448;-87
2023/06/24 02:54:09;;;;;;;8.73;5.97;;;16.60;99.90;;;;;;5020658;28;20457;-86
2023/06/24 02:56:43;;;;;;;12.33;5.50;;;16.50;99.90;;;;;;5002848;28;20480;-86
2023/06/24 02:59:09;;;;;;;9.40;5.13;;;16.10;99.90;;;;;;4997074;28;20496;-87
2023/06/24 03:01:38;;;;;;;8.93;6.23;;;16.10;99.90;;;;;;5006361;28;20450;-86
2023/06/24 03:04:04;;;;;;;11.30;6.73;;;15.90;99.90;;;;;;4990146;28;20190;-87
2023/06/24 03:06:31;;;;;;;10.97;6.67;;;15.60;99.90;;;;;;5005055;28;20467;-86
2023/06/24 03:08:57;;;;;;;7.83;6.00;;;15.40;99.90;;;;;;5006815;28;20860;-84
2023/06/24 03:11:23;;;;;;;6.87;5.10;;;;;;;;;;5002374;28;20446;-85
2023/06/24 03:13:49;;;;;;;7.17;5.47;;;15.30;99.90;;;;;;5005098;28;20454;-86
2023/06/24 03:16:15;;;;;;;8.50;6.00;;;15.30;99.90;;;;;;4993687;28;20430;-85
2023/06/24 03:18:42;;;;;;;7.70;5.07;;;15.10;99.90;;;;;;5005084;28;20258;-86
2023/06/24 03:21:08;;;;;;;9.90;6.43;;;15.00;99.90;;;;;;5002712;28;20441;-85
2023/06/24 03:23:34;;;;;;;8.60;6.07;;;15.00;99.90;;;;;;4991083;28;20445;-84
2023/06/24 03:26:00;;;;;;;6.77;4.53;;;15.00;99.90;;;;;;5003229;28;20805;-85
2023/06/24 03:28:26;;;;;;;10.43;5.27;;;15.10;99.90;;;;;;4990634;28;20460;-85
2023/06/24 03:30:52;;;;;;;7.27;5.30;;;15.20;99.90;;;;;;5004054;28;20615;-86
2023/06/24 03:33:18;;;;;;;10.40;5.63;;;15.80;99.90;;;;;;4985171;28;20570;-85
2023/06/24 03:35:44;;;;;;;7.53;4.83;;;16.10;99.90;;;;;;5021289;28;20622;-88
2023/06/24 03:38:11;;;;;;;10.20;5.77;;;16.80;99.90;;;;;;5026173;28;20429;-86
2023/06/24 03:40:40;;;;;;;8.57;4.47;;;16.70;99.90;;;;;;5019874;28;20445;-88
2023/06/24 03:43:06;;;;;;;9.47;6.10;;;;;;;;;;5019531;28;20413;-87
2023/06/24 03:45:31;;;;;;;9.43;5.60;;;17.40;99.90;;;;;;5022295;28;20397;-89
2023/06/24 03:47:57;;;;;;;8.63;5.60;;;;;;;;;;4999999;28;20520;-88
2023/06/24 03:50:23;;;;;;;9.47;5.07;;;;;;;;;;5019042;28;20217;-89
2023/06/24 03:52:49;;;;;;;8.13;5.63;;;17.00;99.90;;;;;;4996118;28;20457;-86
2023/06/24 03:55:14;;;;;;;7.37;4.60;;;16.90;99.90;;;;;;4992199;28;21123;-84
2023/06/24 03:57:40;;;;;;;8.10;6.13;;;16.90;99.90;;;;;;5000298;28;20224;-85
2023/06/24 04:00:14;;;;;;;6.73;4.33;;;17.00;99.90;;;;;;5010362;28;20213;-85
2023/06/24 04:02:41;;;;;;;17.90;5.10;;;16.90;99.90;;;;;;5000118;28;20189;-86
2023/06/24 04:05:07;;;;;;;7.63;5.23;;;17.00;99.90;;;;;;4985999;28;20808;-85
2023/06/24 04:07:35;;;;;;;8.97;5.33;;;17.10;99.90;;;;;;5006173;28;20433;-85
2023/06/24 04:10:02;;;;;;;6.83;5.10;;;17.20;99.90;;;;;;4990296;28;20229;-84
2023/06/24 04:12:29;;;;;;;9.20;5.40;;;17.20;99.90;;;;;;5026314;28;20465;-85
2023/06/24 04:14:54;;;;;;;7.60;5.17;;;;;;;;;;5022589;28;20478;-85
2023/06/24 04:17:20;;;;;;;8.23;4.93;;;;;;;;;;5014241;28;20460;-88
2023/06/24 04:19:46;;;;;;;12.00;6.53;;;17.70;99.90;;;;;;5003277;28;20491;-87
2023/06/24 04:22:12;;;;;;;7.97;4.90;;;19.00;99.90;;;;;;5013845;28;20445;-88
2023/06/24 04:24:38;;;;;;;7.30;5.60;;;;;;;;;;5008721;28;20186;-89
2023/06/24 04:27:05;;;;;;;6.97;4.57;;;21.90;99.90;;;;;;5001856;28;20179;-89
2023/06/24 04:29:30;;;;;;;8.23;5.70;;;23.10;99.90;;;;;;5000488;28;20457;-87
2023/06/24 04:31:56;;;;;;;6.47;4.37;;;23.50;99.90;;;;;;4997619;28;20520;-86
2023/06/24 04:34:22;;;;;;;7.20;5.13;;;;;;;;;;4996372;28;20232;-86
2023/06/24 04:36:48;;;;;;;7.13;4.93;;;24.50;99.90;;;;;;4985538;28;20293;-85
2023/06/24 04:39:13;;;;;;;5.53;4.30;;;;;;;;;;4995376;28;20446;-85
2023/06/24 04:41:40;;;;;;;8.70;6.57;;;25.30;99.90;;;;;;5012856;28;20184;-88
2023/06/24 04:44:06;;;;;;;6.70;4.83;;;;;;;;;;5011671;28;20632;-86
2023/06/24 04:46:33;;;;;;;7.17;5.20;;;;;;;;;;5017847;28;20448;-87
2023/06/24 04:48:59;;;;;;;8.23;5.50;;;26.40;99.90;;;;;;5005771;28;20429;-89
2023/06/24 04:51:25;;;;;;;6.47;4.97;;;;;;;;;;4984703;28;20477;-89
2023/06/24 04:53:51;;;;;;;7.70;5.20;;;;;;;;;;4993437;28;20480;-90
2023/06/24 04:56:17;;;;;;;6.60;5.37;;;;;;;;;;4988109;28;20514;-89
2023/06/24 04:58:43;;;;;;;7.17;5.43;;;;;;;;;;4992538;28;21291;-89
2023/06/24 05:01:10;;;;;;;6.30;4.13;;;26.10;99.90;;;;;;5009763;28;20462;-91
2023/06/24 05:03:36;;;;;;;6.13;4.53;;;;;;;;;;5031685;28;20429;-90
2023/06/24 05:06:02;;;;;;;5.20;4.50;;;;;;;;;;5019190;28;20525;-89
2023/06/24 05:08:28;;;;;;;9.20;4.53;;;;;;;;;;5006055;28;20443;-88
2023/06/24 05:10:54;;;;;;;10.70;6.10;;;;;;;;;;4991629;28;20878;-89
2023/06/24 05:13:20;;;;;;;8.63;6.60;;;;;;;;;;4999513;28;21014;-90
2023/06/24 05:15:46;;;;;;;12.60;6.50;;;;;;;;;;5006208;28;20452;-90
2023/06/24 05:18:12;;;;;;;9.97;6.40;;;;;;;;;;5019305;28;20561;-90
2023/06/24 05:20:38;;;;;;;6.40;5.50;;;;;;;;;;5014219;28;20456;-90
2023/06/24 05:23:04;;;;;;;6.20;5.40;;;;;;;;;;4995304;28;20413;-90
2023/06/24 05:25:30;;;;;;;7.50;6.50;;;;;;;;;;5006592;28;20603;-90
2023/06/24 05:27:55;;;;;;;9.13;6.60;;;;;;;;;;4996552;28;20446;-91
2023/06/24 05:30:21;;;;;;;7.50;6.07;;;;;;;;;;5017768;28;20452;-91
2023/06/24 05:32:47;;;;;;;8.60;7.13;;;;;;;;;;4999695;28;20403;-90
2023/06/24 05:35:13;;;;;;;6.30;5.70;;;;;;;;;;4992706;28;20793;-90
2023/06/24 05:37:39;;;;;;;10.57;7.20;;;;;;;;;;5005604;28;20406;-89
2023/06/24 05:40:06;;;;;;;7.60;6.60;;;32.20;72.00;;;;;;5001575;28;20810;-89
2023/06/24 05:42:33;;;;;;;10.13;8.13;;;;;;;;;;5018887;28;20404;-90
2023/06/24 05:44:59;;;;;;;11.93;6.93;;;;;;;;;;5010185;28;20400;-90
2023/06/24 05:47:25;;;;;;;10.20;7.20;;;;;;;;;;5011279;28;20426;-89
2023/06/24 05:49:51;;;;;;;10.00;7.70;;;;;;;;;;5026134;28;20522;-91
2023/06/24 05:52:17;;;;;;;8.77;7.97;;;;;;;;;;5023401;28;20486;-90
2023/06/24 05:54:43;;;;;;;9.30;8.27;;;;;;;;;;5012700;28;20474;-90
2023/06/24 05:57:17;;;;;;;10.30;9.27;;;38.40;55.90;;;;;;5020972;28;20507;-90
2023/06/24 05:59:43;;;;;;;10.10;9.10;;;;;;;;;;5015761;28;20834;-90
2023/06/24 06:02:09;;;;;;;10.90;9.73;;;;;;;;;;5002949;28;20429;-89
2023/06/24 06:04:35;;;;;;;11.30;10.20;;;;;;;;;;4996473;28;20462;-89
2023/06/24 06:07:01;;;;;;;9.50;8.73;;;;;;;;;;4995102;28;20953;-91
2023/06/24 06:09:29;;;;;;;9.80;8.90;;;37.60;54.80;;;;;;5006173;28;20445;-90
2023/06/24 06:11:56;;;;;;;9.70;8.90;;;;;;;;;;5045232;28;20407;-91
2023/06/24 06:14:22;;;;;;;10.00;9.20;;;;;;;;;;5008747;28;20812;-91
2023/06/24 06:16:48;;;;;;;9.13;8.47;;;;;;;;;;5020190;28;20453;-92
2023/06/24 06:19:14;;;;;;;10.53;9.73;;;;;;;;;;5001306;28;20434;-88
2023/06/24 06:21:40;;;;;;;10.27;9.60;;;;;;;;;;4995235;28;20443;-90
2023/06/24 06:24:06;;;;;;;11.43;10.47;;;;;;;;;;5016170;28;20490;-91
2023/06/24 06:26:32;;;;;;;11.00;10.20;;;;;;;;;;5018854;28;20818;-91
2023/06/24 06:28:58;;;;;;;10.57;9.43;;;;;;;;;;5043178;28;20464;-90
2023/06/24 06:31:25;;;;;;;9.90;8.90;;;;;;;;;;5020922;28;20515;-90
2023/06/24 06:33:52;;;;;;;10.47;9.67;;;39.70;46.00;;;;;;5003261;28;20452;-90
2023/06/24 06:36:18;;;;;;;10.20;9.40;;;;;;;;;;5004043;28;20396;-90
2023/06/24 06:38:44;;;;;;;10.33;9.40;;;;;;;;;;5011132;28;20415;-89
2023/06/24 06:41:10;;;;;;;10.63;9.57;;;;;;;;;;5007756;28;20456;-90
2023/06/24 06:43:36;;;;;;;10.60;9.80;;;;;;;;;;5001281;28;20433;-90
2023/06/24 06:46:02;;;;;;;10.93;10.07;;;;;;;;;;5007167;28;20977;-89
2023/06/24 06:48:28;;;;;;;10.93;10.23;;;41.50;51.60;;;;;;5005640;28;20948;-90
2023/06/24 06:50:54;;;;;;;10.37;9.67;;;;;;;;;;5016836;28;20523;-90
2023/06/24 06:53:20;;;;;;;10.67;9.90;;;;;;;;;;5001054;28;20469;-90
2023/06/24 06:55:46;;;;;;;10.83;10.03;;;;;;;;;;5001181;28;20432;-90
2023/06/24 06:58:12;;;;;;;11.10;10.20;;;;;;;;;;5017113;28;20179;-90
2023/06/24 07:00:38;;;;;;;10.80;10.00;;;;;;;;;;5002899;28;20451;-91
2023/06/24 07:03:04;;;;;;;10.40;9.70;;;41.70;48.80;;;;;;5005685;28;20429;-90
2023/06/24 07:05:30;;;;;;;10.57;9.77;;;;;;;;;;5016527;28;20210;-90
2023/06/24 07:07:56;;;;;;;10.20;9.60;;;;;;;;;;4999979;28;20209;-91
2023/06/24 07:10:21;;;;;;;11.30;10.60;;;;;;;;;;5008114;28;20232;-90
2023/06/24 07:12:48;;;;;;;11.50;10.90;;;;;;;;;;5018560;28;20440;-90
2023/06/24 07:15:14;;;;;;;10.70;10.10;;;;;;;;;;5023544;28;20480;-90
2023/06/24 07:17:41;;;;;;;10.93;10.13;;;;;;;;;;5022500;28;20441;-90
2023/06/24 07:20:08;;;;;;;10.50;9.80;;;;;;;;;;5039515;28;20452;-90
2023/06/24 07:22:34;;;;;;;11.00;10.20;;;;;;;;;;5039234;28;20386;-91
2023/06/24 07:25:00;;;;;;;11.43;10.53;;;;;;;;;;5022111;28;20402;-91
2023/06/24 07:27:27;;;;;;;10.70;10.03;;;;;;;;;;5025313;28;21008;-90
2023/06/24 07:29:53;;;;;;;11.00;10.30;;;;;;;;;;5018415;28;20440;-90
2023/06/24 07:32:19;;;;;;;10.97;10.27;;;;;;;;;;5018931;28;20186;-90
2023/06/24 07:34:45;;;;;;;10.57;9.97;;;;;;;;;;5019341;28;20240;-91
2023/06/24 07:37:11;;;;;;;10.37;9.57;;;;;;;;;;5017806;28;20401;-90
2023/06/24 07:39:37;;;;;;;10.13;9.33;;;;;;;;;;5000553;28;20480;-90
2023/06/24 07:42:03;;;;;;;10.40;9.80;;;;;;;;;;4997503;28;20902;-90
2023/06/24 07:44:29;;;;;;;10.80;10.10;;;;;;;;;;4996719;28;20232;-88
2023/06/24 07:46:55;;;;;;;9.70;9.00;;;;;;;;;;4997314;28;20788;-88
2023/06/24 07:49:21;;;;;;;9.63;9.03;;;;;;;;;;5013019;28;20687;-89
2023/06/24 07:51:47;;;;;;;11.50;10.50;;;;;;;;;;4998188;28;20192;-90
2023/06/24 07:54:13;;;;;;;10.60;9.80;;;;;;;;;;4996365;28;20489;-89
2023/06/24 07:56:38;;;;;;;9.97;9.30;;;;;;;;;;4989837;28;20442;-89
2023/06/24 07:59:04;;;;;;;10.23;9.53;;;;;;;;;;5005708;28;20490;-89
2023/06/24 08:01:30;;;;;;;11.13;10.20;;;;;;;;;;5003091;28;20466;-89
2023/06/24 08:03:57;;;;;;;9.20;8.60;;;40.20;36.70;;;;;;4986137;28;20220;-88
2023/06/24 08:06:23;;;;;;;10.80;10.00;;;;;;;;;;4988955;28;20537;-90
2023/06/24 08:08:49;;;;;;;9.50;8.80;;;;;;;;;;5000455;28;21154;-89
2023/06/24 08:11:16;;;;;;;9.40;8.80;;;;;;;;;;4979728;28;20493;-90
2023/06/24 08:13:42;;;;;;;9.90;9.20;;;;;;;;;;4973073;28;21257;-89
2023/06/24 08:16:08;;;;;;;9.17;8.60;;;;;;;;;;4978231;28;20469;-88
2023/06/24 08:18:34;;;;;;;10.37;9.53;;;;;;;;;;4985094;28;20456;-89
2023/06/24 08:21:00;;;;;;;8.70;8.20;;;;;;;;;;5011963;28;20457;-89
2023/06/24 08:23:26;;;;;;;9.33;8.73;;;;;;;;;;4991935;28;20451;-91
2023/06/24 08:25:51;;;;;;;9.00;8.40;;;36.90;42.90;;;;;;4994891;28;20488;-89
2023/06/24 08:28:17;;;;;;;9.67;8.97;;;;;;;;;;4990640;28;20178;-90
2023/06/24 08:30:43;;;;;;;7.97;7.47;;;;;;;;;;5004990;28;20670;-90
2023/06/24 08:33:09;;;;;;;7.80;7.30;;;;;;;;;;4989557;28;20507;-88
2023/06/24 08:35:35;;;;;;;7.73;7.33;;;;;;;;;;5009126;28;20746;-89
2023/06/24 08:38:01;;;;;;;8.40;7.70;;;;;;;;;;4984994;28;20521;-91
2023/06/24 08:40:28;;;;;;;9.20;8.70;;;43.10;30.00;;;;;;4993958;28;20643;-92
2023/06/24 08:42:54;;;;;;;9.57;9.03;;;;;;;;;;4994289;28;20186;-90
2023/06/24 08:45:21;;;;;;;9.10;8.60;;;;;;;;;;4995211;28;20808;-91
2023/06/24 08:47:49;;;;;;;10.77;10.07;;;40.00;30.30;;;;;;4993542;28;20524;-91
2023/06/24 08:50:17;;;;;;;11.10;10.50;;;38.90;32.30;;;;;;4993808;28;20452;-91
2023/06/24 08:52:48;;;;;;;10.57;9.77;;;39.80;32.20;;;;;;4996390;28;20452;-89
2023/06/24 08:55:16;;;;;;;9.37;8.37;;;41.30;30.60;;;;;;4992905;28;20527;-91
2023/06/24 08:57:42;;;;;;;9.93;9.17;;;;;;;;;;4987828;28;20452;-90
2023/06/24 09:00:11;;;;;;;8.80;8.30;;;41.70;32.50;;;;;;5008276;28;20941;-90
2023/06/24 09:02:38;;;;;;;9.70;9.10;;;41.90;29.20;;;;;;4995036;28;20666;-91
2023/06/24 09:05:07;;;;;;;10.30;9.80;;;40.70;29.80;;;;;;5007219;28;20433;-91
2023/06/24 09:07:33;;;;;;;10.63;9.93;;;;;;;;;;5004263;28;20916;-91
2023/06/24 09:10:00;;;;;;;9.60;8.80;;;;;;;;;;5018050;28;20486;-90
2023/06/24 09:12:27;;;;;;;9.77;9.17;;;39.90;30.10;;;;;;4988529;28;20914;-90
2023/06/24 09:14:53;;;;;;;10.20;9.30;;;;;;;;;;4992112;28;20453;-90
2023/06/24 09:17:22;;;;;;;9.63;9.00;;;39.90;30.50;;;;;;4995918;28;20437;-90
2023/06/24 09:19:48;;;;;;;9.87;9.10;;;;;;;;;;5012239;28;20527;-91
2023/06/24 09:22:17;;;;;;;10.17;9.60;;;;;;;;;;4990695;28;20433;-90
2023/06/24 09:24:46;;;;;;;8.90;8.30;;;42.40;29.00;;;;;;4995480;28;20436;-91
2023/06/24 09:27:19;;;;;;;10.13;9.50;;;42.70;28.90;;;;;;5002640;28;20498;-90
2023/06/24 09:29:47;;;;;;;9.17;8.57;;;;;;;;;;4992144;28;21056;-91
2023/06/24 09:32:13;;;;;;;7.97;7.57;;;;;;;;;;5004211;28;20812;-90
2023/06/24 09:34:39;;;;;;;10.77;9.97;;;;;;;;;;5005186;28;20460;-90
2023/06/24 09:37:05;;;;;;;10.60;9.90;;;;;;;;;;4985826;28;20931;-91
2023/06/24 09:39:37;;;;;;;9.93;9.30;;;40.00;30.20;;;;;;5002675;28;20488;-90
2023/06/24 09:42:05;;;;;;;9.57;8.97;;;38.90;28.60;;;;;;4994021;28;20432;-91
2023/06/24 09:44:31;;;;;;;9.53;8.93;;;;;;;;;;4989398;28;20433;-90
2023/06/24 09:46:57;;;;;;;11.57;9.53;;;;;;;;;;4989727;28;20440;-89
2023/06/24 09:49:23;;;;;;;9.73;9.03;;;37.80;31.20;;;;;;4991270;28;20497;-91
2023/06/24 09:51:59;;;;;;;9.40;8.47;;;36.90;31.60;;;;;;5003704;28;20549;-90
2023/06/24 09:54:29;;;;;;;9.43;8.73;;;37.80;31.50;;;;;;5003246;28;20218;-90
2023/06/24 09:56:59;;;;;;;9.03;8.43;;;39.20;31.10;;;;;;5005321;28;20464;-90
2023/06/24 09:59:27;;;;;;;9.67;9.07;;;39.50;30.20;;;;;;4990774;28;20470;-90
2023/06/24 10:01:54;;;;;;;8.93;8.33;;;40.60;30.40;;;;;;4991093;28;20430;-91
2023/06/24 10:04:22;;;;;;;10.07;8.80;;;41.60;29.40;;;;;;5000513;28;20434;-90
2023/06/24 10:06:48;;;;;;;9.27;8.67;;;;;;;;;;4982206;28;20429;-91
2023/06/24 10:09:16;;;;;;;9.20;8.60;;;;;;;;;;4987236;28;20421;-89
2023/06/24 10:11:43;;;;;;;9.30;8.60;;;;;;;;;;4982890;28;20945;-89
2023/06/24 10:14:09;;;;;;;9.93;9.33;;;;;;;;;;4985499;28;20986;-90
2023/06/24 10:16:35;;;;;;;8.40;8.00;;;;;;;;;;5000443;28;20432;-90
2023/06/24 10:19:02;;;;;;;9.33;8.73;;;38.50;29.20;;;;;;4981684;28;20434;-90
2023/06/24 10:21:49;;;;;;;9.20;8.70;;;39.60;30.10;;;;;;4988529;28;20455;-90
2023/06/24 10:24:35;;;;;;;9.87;9.17;;;37.30;31.70;;;;;;5004702;28;20505;-89
2023/06/24 10:27:05;;;;;;;8.40;7.90;;;36.20;33.00;;;;;;4982435;28;20444;-89
2023/06/24 10:29:38;;;;;;;7.53;7.13;;;36.40;31.20;;;;;;4998379;28;20460;-90
2023/06/24 10:32:05;;;;;;;8.63;8.07;;;36.00;29.70;;;;;;4992729;28;20475;-91
2023/06/24 10:34:34;;;;;;;9.00;8.50;;;36.00;30.10;;;;;;4990144;28;20682;-89
2023/06/24 10:37:20;;;;;;;8.03;7.47;;;35.00;30.70;;;;;;5004123;28;20452;-90
2023/06/24 10:39:57;;;;;;;8.87;8.27;;;33.60;32.90;;;;;;5005517;28;20982;-89
2023/06/24 10:42:34;;;;;;;8.83;7.97;;;33.40;34.10;;;;;;5003847;28;20427;-90
2023/06/24 10:45:08;;;;;;;7.87;7.27;;;32.70;34.40;;;;;;5001045;28;20782;-89
2023/06/24 10:47:34;;;;;;;7.33;6.93;;;32.20;37.00;;;;;;4986831;28;20430;-89
2023/06/24 10:50:00;;;;;;;7.80;7.30;;;31.20;37.60;;;;;;4992446;28;20464;-90
2023/06/24 10:52:26;;;;;;;8.00;7.40;;;;;;;;;;5005746;28;20458;-89
2023/06/24 10:54:53;;;;;;;7.60;7.00;;;30.70;39.20;;;;;;5003235;28;20200;-89
2023/06/24 10:57:24;;;;;;;7.07;6.67;;;30.70;39.80;;;;;;4987079;28;20434;-89
2023/06/24 10:59:50;;;;;;;7.77;7.17;;;30.60;38.00;;;;;;4987084;28;20461;-89
2023/06/24 11:02:21;;;;;;;7.67;7.00;;;30.10;39.30;;;;;;5002260;28;20430;-89
2023/06/24 11:04:48;;;;;;;5.47;5.17;;;29.80;39.50;;;;;;4997902;28;20469;-89
2023/06/24 11:07:16;;;;;;;6.13;5.63;;;29.90;40.10;;;;;;4986849;28;20973;-89
2023/06/24 11:09:42;;;;;;;5.73;5.33;;;29.70;41.00;;;;;;5007872;28;20452;-88
2023/06/24 11:12:11;;;;;;;6.47;5.87;;;29.20;40.40;;;;;;5022770;28;20407;-88
2023/06/24 11:14:38;;;;;;;6.27;5.67;;;28.90;41.60;;;;;;5041034;28;20916;-89
2023/06/24 11:17:04;;;;;;;5.67;5.20;;;28.80;40.60;;;;;;5040821;28;20551;-88
2023/06/24 11:19:31;;;;;;;5.37;4.97;;;28.80;41.10;;;;;;5023095;28;20910;-88
2023/06/24 11:22:00;;;;;;;5.90;5.40;;;29.00;41.20;;;;;;5022616;28;20175;-88
2023/06/24 11:24:29;;;;;;;6.03;5.57;;;29.30;42.00;;;;;;5041304;28;20423;-88
2023/06/24 11:26:56;;;;;;;6.50;6.00;;;29.20;42.40;;;;;;5023229;28;20443;-88
2023/06/24 11:29:22;;;;;;;6.10;5.60;;;29.10;41.70;;;;;;5024159;28;20424;-88
2023/06/24 11:31:49;;;;;;;6.40;5.80;;;29.10;42.20;;;;;;5023783;28;20419;-88
2023/06/24 11:34:15;;;;;;;5.40;5.00;;;;;;;;;;5040177;28;20455;-87
2023/06/24 11:36:41;;;;;;;7.80;5.60;;;;;;;;;;5019274;28;20408;-88
2023/06/24 11:39:07;;;;;;;5.10;4.70;;;;;;;;;;5000585;28;20423;-88
2023/06/24 11:41:33;;;;;;;5.47;4.97;;;;;;;;;;5003193;28;20409;-88
2023/06/24 11:43:59;;;;;;;5.67;5.20;;;;;;;;;;4999920;28;20418;-88
2023/06/24 11:46:35;;;;;;;5.97;4.60;;;28.50;41.90;;;;;;4999154;28;20745;-88
2023/06/24 11:49:08;;;;;;;5.43;5.03;;;27.50;43.50;;;;;;4999618;28;21029;-87
2023/06/24 11:51:37;;;;;;;5.30;4.90;;;27.90;43.00;;;;;;5000211;28;20418;-87
2023/06/24 11:54:05;;;;;;;5.63;5.03;;;28.10;42.50;;;;;;5020029;28;20484;-89
2023/06/24 11:56:40;;;;;;;5.50;5.10;;;28.10;42.30;;;;;;5039860;28;20389;-88
2023/06/24 11:59:06;;;;;;;5.67;5.17;;;28.10;40.70;;;;;;5031945;28;20424;-87
2023/06/24 12:01:39;;;;;;;9.33;5.30;;;28.90;41.70;;;;;;5020520;28;20395;-88
2023/06/24 12:04:13;;;;;;;5.10;4.70;;;28.20;42.50;;;;;;5017771;28;20425;-88
2023/06/24 12:06:42;;;;;;;5.03;4.63;;;28.90;42.40;;;;;;5019701;28;20760;-87
2023/06/24 12:09:09;;;;;;;5.80;5.33;;;28.50;40.00;;;;;;5001862;28;20496;-88
2023/06/24 12:11:35;;;;;;;6.50;5.90;;;28.50;40.50;;;;;;5018817;28;20414;-88
2023/06/24 12:14:01;;;;;;;4.80;4.40;;;28.90;40.90;;;;;;5013531;28;20855;-88
2023/06/24 12:16:27;;;;;;;4.97;4.50;;;;;;;;;;4999031;28;20461;-88
2023/06/24 12:18:53;;;;;;;5.33;4.93;;;29.10;41.10;;;;;;4998272;28;20288;-88
2023/06/24 12:21:19;;;;;;;4.63;4.30;;;31.40;43.00;;;;;;4980060;28;20496;-89
2023/06/24 12:23:45;;;;;;;4.80;4.40;;;29.30;41.10;;;;;;5001644;28;20446;-87
2023/06/24 12:26:11;;;;;;;5.20;4.80;;;29.50;40.40;;;;;;4995688;28;20982;-84
2023/06/24 12:28:36;;;;;;;5.80;5.30;;;29.60;42.70;;;;;;4988418;28;20458;-85
2023/06/24 12:31:02;;;;;;;6.00;5.50;;;29.70;40.90;;;;;;4979380;28;20452;-86
2023/06/24 12:33:28;;;;;;;6.07;4.80;;;29.40;41.00;;;;;;4993810;28;20228;-85
2023/06/24 12:35:54;;;;;;;4.90;4.50;;;;;;;;;;4997359;28;20451;-86
2023/06/24 12:38:20;;;;;;;6.10;5.50;;;29.50;38.40;;;;;;4995181;28;20176;-85
2023/06/24 12:40:46;;;;;;;4.63;4.23;;;;;;;;;;4996122;28;20464;-84
2023/06/24 12:43:11;;;;;;;5.17;4.77;;;28.80;42.10;;;;;;4995644;28;20182;-83
2023/06/24 12:45:38;;;;;;;5.53;4.97;;;28.80;42.60;;;;;;4988824;28;20508;-85
2023/06/24 12:48:04;;;;;;;4.80;4.40;;;28.80;42.40;;;;;;4998682;28;20196;-83
2023/06/24 12:50:32;;;;;;;5.73;4.63;;;28.90;42.50;;;;;;4995716;28;20554;-84
2023/06/24 12:52:58;;;;;;;7.23;5.13;;;;;;;;;;4997642;28;20456;-86
2023/06/24 12:55:24;;;;;;;5.10;4.70;;;29.60;40.10;;;;;;4997410;28;20543;-82
2023/06/24 12:57:50;;;;;;;5.80;5.30;;;;;;;;;;4999379;28;20929;-83
2023/06/24 13:00:19;;;;;;;4.53;4.23;;;29.60;39.80;;;;;;5000624;28;20211;-83
2023/06/24 13:02:44;;;;;;;5.50;5.10;;;29.70;40.30;;;;;;4992416;28;20905;-84
2023/06/24 13:05:10;;;;;;;4.07;3.77;;;29.10;41.30;;;;;;4989517;28;20429;-85
2023/06/24 13:07:35;;;;;;;4.73;4.33;;;29.20;41.00;;;;;;4999714;28;20185;-84
2023/06/24 13:10:01;;;;;;;5.63;4.23;;;29.00;40.00;;;;;;4984722;28;20943;-85
2023/06/24 13:12:27;;;;;;;5.77;5.27;;;29.00;39.70;;;;;;4987997;28;20215;-85
2023/06/24 13:14:52;;;;;;;4.77;4.47;;;28.70;41.20;;;;;;4985323;28;20493;-82
2023/06/24 13:17:18;;;;;;;5.50;4.80;;;28.40;42.50;;;;;;4990773;28;20183;-83
2023/06/24 13:19:44;;;;;;;5.13;4.63;;;28.30;41.00;;;;;;4998325;28;20274;-84
2023/06/24 13:22:09;;;;;;;6.03;5.03;;;28.50;40.90;;;;;;4982666;28;20643;-85
2023/06/24 13:24:35;;;;;;;4.53;4.23;;;28.80;41.30;;;;;;4998633;28;20230;-83